Time;durP1;ratioP1;P1;durP2;ratioP2;P2;SDS_P1;SDS_P2;PMS_P1;PMS_P2;Temp;Humidity;BMP_temperature;BMP_pressure;BME280_temperature;BME280_humidity;BME280_pressure;Samples;Min_cycle;Max_cycle;Signal;HPM_P1;HPM_P2
2023/12/26 00:00:35;;;;;;;;;2.33;1.00;;;;;;;;5100247;28;29363;-83
2023/12/26 00:03:06;;;;;;;;;4.33;1.67;;;;;;;;5100531;28;29114;-83
2023/12/26 00:05:31;;;;;;;;;3.75;2.00;;;;;;;;5101079;28;28460;-83
2023/12/26 00:07:56;;;;;;;;;0.00;0.00;;;;;;;;5100486;28;28423;-83
2023/12/26 00:10:21;;;;;;;;;3.00;3.00;;;;;;;;5102205;28;28564;-82
2023/12/26 00:12:47;;;;;;;;;2.67;2.00;;;;;;;;5097089;27;30131;-83
2023/12/26 00:15:12;;;;;;;;;4.33;2.00;;;;;;;;5077078;28;29491;-82
2023/12/26 00:17:38;;;;;;;;;2.67;2.00;;;;;;;;5072050;28;28482;-83
2023/12/26 00:20:04;;;;;;;;;1.00;1.00;;;;;;;;5078756;28;29595;-82
2023/12/26 00:22:30;;;;;;;;;7.00;2.00;;;;;;;;5085727;28;28616;-82
2023/12/26 00:24:55;;;;;;;;;3.33;1.67;;;;;;;;5069600;28;29335;-83
2023/12/26 00:27:21;;;;;;;;;3.33;2.00;;;;;;;;5084616;28;28528;-83
2023/12/26 00:29:46;;;;;;;;;4.67;1.00;;;;;;;;5085800;27;28508;-81
2023/12/26 00:32:11;;;;;;;;;3.67;3.00;;;;;;;;5062333;28;30012;-83
2023/12/26 00:34:36;;;;;;;;;2.67;2.00;;;;;;;;5099989;28;28789;-84
2023/12/26 00:37:02;;;;;;;;;8.33;4.00;;;;;;;;5097914;28;29211;-83
2023/12/26 00:39:27;;;;;;;;;1.00;1.00;;;;;;;;5076739;28;28596;-82
2023/12/26 00:41:52;;;;;;;;;3.00;3.00;;;;;;;;5080792;28;28410;-82
2023/12/26 00:44:17;;;;;;;;;3.67;2.67;;;;;;;;5081308;28;28881;-84
2023/12/26 00:46:46;;;;;;;;;4.33;3.00;;;;;;;;5097074;28;27947;-84
2023/12/26 00:49:11;;;;;;;;;1.67;1.00;;;;;;;;5080497;28;29069;-80
2023/12/26 00:51:36;;;;;;;;;2.67;1.67;;;;;;;;5098310;28;29275;-83
2023/12/26 00:54:02;;;;;;;;;5.33;2.00;;;;;;;;5085926;28;27818;-82
2023/12/26 00:56:27;;;;;;;;;4.33;2.00;;;;;;;;5100666;28;28250;-83
2023/12/26 00:58:52;;;;;;;;;3.00;1.67;;;;;;;;5083828;28;29558;-83
2023/12/26 01:01:17;;;;;;;;;4.00;2.00;;;;;;;;5096645;28;28570;-85
2023/12/26 01:03:43;;;;;;;;;1.67;1.33;;;;;;;;5073056;28;29150;-84
2023/12/26 01:06:08;;;;;;;;;2.67;2.00;;;;;;;;5070885;28;29137;-82
2023/12/26 01:08:33;;;;;;;;;4.00;2.67;;;;;;;;5097130;28;29156;-83
2023/12/26 01:10:59;;;;;;;;;2.33;1.00;;;;;;;;5096892;28;28778;-84
2023/12/26 01:13:26;;;;;;;;;5.33;1.00;;;;;;;;5084129;28;28469;-83
2023/12/26 01:15:51;;;;;;;;;1.33;1.00;;;;;;;;5096717;28;28495;-82
2023/12/26 01:18:17;;;;;;;;;7.00;3.00;;;;;;;;5082916;28;29093;-82
2023/12/26 01:20:42;;;;;;;;;4.00;1.00;;;;;;;;5086796;28;28555;-82
2023/12/26 01:23:07;;;;;;;;;1.33;1.00;;;;;;;;5083269;28;28813;-84
2023/12/26 01:25:32;;;;;;;;;4.00;2.00;;;;;;;;5100422;28;28603;-81
2023/12/26 01:27:58;;;;;;;;;5.00;2.67;;;;;;;;5099762;28;28262;-82
2023/12/26 01:30:23;;;;;;;;;3.00;2.33;;;;;;;;5079925;28;29742;-82
2023/12/26 01:32:49;;;;;;;;;5.67;3.33;;;;;;;;5089169;28;28666;-83
2023/12/26 01:35:14;;;;;;;;;4.00;1.33;;;;;;;;5099944;28;28543;-81
2023/12/26 01:37:39;;;;;;;;;1.00;1.00;;;;;;;;5097804;28;28567;-83
2023/12/26 01:40:05;;;;;;;;;3.67;3.00;;;;;;;;5099892;27;28098;-82
2023/12/26 01:42:30;;;;;;;;;2.33;0.33;;;;;;;;5109186;27;27843;-82
2023/12/26 01:44:55;;;;;;;;;4.67;2.00;;;;;;;;5082583;28;27866;-82
2023/12/26 01:47:21;;;;;;;;;4.33;2.67;;;;;;;;5101586;28;27838;-83
2023/12/26 01:49:46;;;;;;;;;3.00;1.33;;;;;;;;5098720;27;30731;-82
2023/12/26 01:52:14;;;;;;;;;4.00;1.00;;;;;;;;5083429;28;29107;-84
2023/12/26 01:54:39;;;;;;;;;2.00;2.00;;;;;;;;5098248;28;28311;-82
2023/12/26 01:57:06;;;;;;;;;3.33;3.00;;;;;;;;5096561;28;28089;-83
2023/12/26 01:59:31;;;;;;;;;3.00;2.00;;;;;;;;5100253;28;28551;-82
2023/12/26 02:01:58;;;;;;;;;3.67;2.00;;;;;;;;5085433;28;28832;-80
2023/12/26 02:04:23;;;;;;;;;4.33;1.00;;;;;;;;5091684;28;28485;-82
2023/12/26 02:06:49;;;;;;;;;4.67;1.00;;;;;;;;5094268;27;28307;-82
2023/12/26 02:09:14;;;;;;;;;7.67;1.00;;;;;;;;5094740;28;30167;-81
2023/12/26 02:11:40;;;;;;;;;4.00;2.00;;;;;;;;5096358;28;28565;-81
2023/12/26 02:14:05;;;;;;;;;2.00;1.00;;;;;;;;5090848;28;29050;-82
2023/12/26 02:16:33;;;;;;;;;3.33;2.00;;;;;;;;5097007;28;28918;-82
2023/12/26 02:18:59;;;;;;;;;7.67;2.00;;;;;;;;5095167;28;28837;-81
2023/12/26 02:21:24;;;;;;;;;3.00;2.00;;;;;;;;5076314;28;28648;-80
2023/12/26 02:23:52;;;;;;;;;1.33;1.00;;;;;;;;5092056;28;28824;-81
2023/12/26 02:26:18;;;;;;;;;1.00;1.00;;;;;;;;5090697;28;28575;-79
2023/12/26 02:28:43;;;;;;;;;1.67;1.00;;;;;;;;5085595;28;28551;-81
2023/12/26 02:31:09;;;;;;;;;3.00;2.00;;;;;;;;5073746;27;30204;-81
2023/12/26 02:33:35;;;;;;;;;5.67;4.00;;;;;;;;5071248;28;28540;-81
2023/12/26 02:36:00;;;;;;;;;1.00;1.00;;;;;;;;5104399;27;30300;-81
2023/12/26 02:38:26;;;;;;;;;3.00;1.67;;;;;;;;5092844;28;28372;-80
2023/12/26 02:40:52;;;;;;;;;5.00;2.33;;;;;;;;5096699;28;28755;-81
2023/12/26 02:43:21;;;;;;;;;1.33;1.00;;;;;;;;5077247;28;28497;-83
2023/12/26 02:45:48;;;;;;;;;1.00;1.00;;;;;;;;5092183;28;28322;-81
2023/12/26 02:48:14;;;;;;;;;3.67;0.00;;;;;;;;5095501;28;28638;-82
2023/12/26 02:50:39;;;;;;;;;6.00;2.33;;;;;;;;5098632;28;28819;-81
2023/12/26 02:53:04;;;;;;;;;4.67;1.33;;;;;;;;5075746;28;28745;-83
2023/12/26 02:55:31;;;;;;;;;3.00;1.00;;;;;;;;5093589;28;30180;-82
2023/12/26 02:57:56;;;;;;;;;2.33;2.00;;;;;;;;5089072;28;28524;-82
2023/12/26 03:00:21;;;;;;;;;2.00;2.00;;;;;;;;5102181;28;28307;-80
2023/12/26 03:02:46;;;;;;;;;2.33;1.67;;;;;;;;5083653;28;28851;-81
2023/12/26 03:05:12;;;;;;;;;3.33;2.00;;;;;;;;5094012;28;29611;-81
2023/12/26 03:07:37;;;;;;;;;2.00;2.00;;;;;;;;5082785;28;29684;-81
2023/12/26 03:10:07;;;;;;;;;6.67;3.00;;;;;;;;5100186;28;28279;-81
2023/12/26 03:12:32;;;;;;;;;4.00;2.00;;;;;;;;5084277;28;28505;-82
2023/12/26 03:14:57;;;;;;;;;3.00;1.00;;;;;;;;5096496;28;28681;-82
2023/12/26 03:17:22;;;;;;;;;3.00;1.00;;;;;;;;5080683;28;30547;-80
2023/12/26 03:19:48;;;;;;;;;1.00;1.00;;;;;;;;5101249;28;28544;-82
2023/12/26 03:22:13;;;;;;;;;1.67;1.00;;;;;;;;5074064;28;28497;-81
2023/12/26 03:24:38;;;;;;;;;2.33;1.33;;;;;;;;5102589;28;28503;-81
2023/12/26 03:27:07;;;;;;;;;4.33;1.33;;;;;;;;5103489;28;28544;-82
2023/12/26 03:29:35;;;;;;;;;4.00;1.00;;;;;;;;5102768;28;28451;-82
2023/12/26 03:32:00;;;;;;;;;4.67;1.00;;;;;;;;5095541;28;28329;-82
2023/12/26 03:34:25;;;;;;;;;2.33;1.00;;;;;;;;5099637;28;28563;-81
2023/12/26 03:36:51;;;;;;;;;2.33;1.00;;;;;;;;5078160;28;29993;-82
2023/12/26 03:39:16;;;;;;;;;4.00;2.33;;;;;;;;5079978;28;28876;-77
2023/12/26 03:41:48;;;;;;;;;2.00;1.67;;;;;;;;5099772;28;28348;-81
2023/12/26 03:44:17;;;;;;;;;5.33;1.00;;;;;;;;5079563;28;29712;-80
2023/12/26 03:46:43;;;;;;;;;2.00;1.00;;;;;;;;5090727;28;28690;-79
2023/12/26 03:49:08;;;;;;;;;2.67;1.00;;;;;;;;5097581;28;28480;-81
2023/12/26 03:51:33;;;;;;;;;3.33;2.67;;;;;;;;5097877;28;27988;-81
2023/12/26 03:53:59;;;;;;;;;4.67;2.33;;;;;;;;5093977;28;28531;-82
2023/12/26 03:56:28;;;;;;;;;4.67;1.00;;;;;;;;5079871;28;30240;-80
2023/12/26 03:58:54;;;;;;;;;2.50;1.00;;;;;;;;5105747;27;30118;-81
2023/12/26 04:01:19;;;;;;;;;2.67;1.00;;;;;;;;5094798;28;28594;-82
2023/12/26 04:03:44;;;;;;;;;2.00;1.00;;;;;;;;5095864;28;28614;-80
2023/12/26 04:06:10;;;;;;;;;3.00;1.67;;;;;;;;5079661;28;29657;-80
2023/12/26 04:08:35;;;;;;;;;2.33;1.33;;;;;;;;5102752;28;28443;-81
2023/12/26 04:11:00;;;;;;;;;2.00;1.67;;;;;;;;5100029;28;28538;-82
2023/12/26 04:16:22;;;;;;;;;1.00;1.00;;;;;;;;5098269;28;28109;-83
2023/12/26 04:18:47;;;;;;;;;2.75;1.75;;;;;;;;5086863;28;29026;-83
2023/12/26 04:21:13;;;;;;;;;4.00;1.00;;;;;;;;5084670;28;28462;-82
2023/12/26 04:23:38;;;;;;;;;5.00;2.00;;;;;;;;5101315;27;28519;-81
2023/12/26 04:26:04;;;;;;;;;1.67;1.00;;;;;;;;5084603;28;28379;-81
2023/12/26 04:28:29;;;;;;;;;0.50;0.25;;;;;;;;5101201;28;28385;-81
2023/12/26 04:30:54;;;;;;;;;2.33;2.33;;;;;;;;5104730;28;28508;-83
2023/12/26 04:33:20;;;;;;;;;2.67;1.00;;;;;;;;5104609;28;29344;-79
2023/12/26 04:35:45;;;;;;;;;4.00;1.00;;;;;;;;5081162;28;29252;-80
2023/12/26 04:38:12;;;;;;;;;3.67;2.00;;;;;;;;5098790;28;27918;-81
2023/12/26 04:40:37;;;;;;;;;3.00;1.33;;;;;;;;5084685;28;27937;-82
2023/12/26 04:43:05;;;;;;;;;4.67;1.00;;;;;;;;5099060;28;28490;-82
2023/12/26 04:45:30;;;;;;;;;5.00;2.00;;;;;;;;5104331;28;28455;-81
2023/12/26 04:47:56;;;;;;;;;2.00;2.00;;;;;;;;5103877;27;28489;-82
2023/12/26 04:50:21;;;;;;;;;6.33;2.33;;;;;;;;5103284;28;28442;-83
2023/12/26 04:52:46;;;;;;;;;1.33;1.33;;;;;;;;5108718;27;28413;-81
2023/12/26 04:55:12;;;;;;;;;4.00;4.00;;;;;;;;5106593;28;29363;-83
2023/12/26 04:57:37;;;;;;;;;1.67;1.67;;;;;;;;5105698;28;27865;-83
2023/12/26 05:00:02;;;;;;;;;4.67;1.67;;;;;;;;5086010;28;28491;-80
2023/12/26 05:02:28;;;;;;;;;1.00;1.00;;;;;;;;5087591;28;29381;-80
2023/12/26 05:04:53;;;;;;;;;3.33;2.33;;;;;;;;5105807;27;29568;-82
2023/12/26 05:07:19;;;;;;;;;1.00;1.00;;;;;;;;5108311;27;27803;-82
2023/12/26 05:09:44;;;;;;;;;1.67;1.00;;;;;;;;5108235;27;28160;-82
2023/12/26 05:12:13;;;;;;;;;1.33;1.33;;;;;;;;5105970;27;29773;-82
2023/12/26 05:14:38;;;;;;;;;2.33;2.33;;;;;;;;5106636;27;28579;-83
2023/12/26 05:17:04;;;;;;;;;1.33;1.33;;;;;;;;5107364;27;28143;-83
2023/12/26 05:19:29;;;;;;;;;3.67;1.00;;;;;;;;5107178;27;28442;-83
2023/12/26 05:21:54;;;;;;;;;2.00;1.00;;;;;;;;5095709;28;28005;-83
2023/12/26 05:24:19;;;;;;;;;3.00;1.67;;;;;;;;5107016;27;28496;-84
2023/12/26 05:26:44;;;;;;;;;3.33;3.00;;;;;;;;5107833;27;27843;-82
2023/12/26 05:29:10;;;;;;;;;1.67;1.67;;;;;;;;5106686;28;28379;-83
2023/12/26 05:31:35;;;;;;;;;8.67;2.67;;;;;;;;5105904;28;29092;-82
2023/12/26 05:34:02;;;;;;;;;3.00;2.67;;;;;;;;5105574;28;28144;-81
2023/12/26 05:36:27;;;;;;;;;3.25;1.00;;;;;;;;5077649;28;30035;-81
2023/12/26 05:38:52;;;;;;;;;1.33;1.33;;;;;;;;5099956;28;28454;-82
2023/12/26 05:41:18;;;;;;;;;2.00;1.00;;;;;;;;5075137;28;28527;-81
2023/12/26 05:43:44;;;;;;;;;4.00;1.33;;;;;;;;5094275;28;30380;-81
2023/12/26 05:46:10;;;;;;;;;4.00;2.00;;;;;;;;5098002;28;28505;-80
2023/12/26 05:48:35;;;;;;;;;2.33;2.33;;;;;;;;5096341;28;28116;-82
2023/12/26 05:51:00;;;;;;;;;4.33;3.67;;;;;;;;5105264;28;28120;-80
2023/12/26 05:53:30;;;;;;;;;2.00;2.00;;;;;;;;5110262;28;28780;-81
2023/12/26 05:55:56;;;;;;;;;1.50;1.50;;;;;;;;5111305;27;27804;-83
2023/12/26 05:58:22;;;;;;;;;3.33;2.00;;;;;;;;5109652;28;27981;-82
2023/12/26 06:00:47;;;;;;;;;3.00;1.00;;;;;;;;5094961;28;29397;-83
2023/12/26 06:03:12;;;;;;;;;6.00;3.00;;;;;;;;5122085;27;28446;-81
2023/12/26 06:05:37;;;;;;;;;2.67;1.67;;;;;;;;5110749;28;28396;-82
2023/12/26 06:08:03;;;;;;;;;2.67;1.00;;;;;;;;5112363;28;27835;-84
2023/12/26 06:10:28;;;;;;;;;3.00;2.00;;;;;;;;5109494;28;27934;-82
2023/12/26 06:12:53;;;;;;;;;1.00;1.00;;;;;;;;5111364;28;30041;-83
2023/12/26 06:15:19;;;;;;;;;3.00;2.00;;;;;;;;5110191;28;27919;-83
2023/12/26 06:17:44;;;;;;;;;2.00;0.00;;;;;;;;5107374;28;28547;-84
2023/12/26 06:20:09;;;;;;;;;1.67;1.00;;;;;;;;5105304;28;28923;-84
2023/12/26 06:22:35;;;;;;;;;3.33;2.00;;;;;;;;5104897;28;28359;-82
2023/12/26 06:25:00;;;;;;;;;3.67;0.00;;;;;;;;5101825;28;27934;-81
2023/12/26 06:27:25;;;;;;;;;3.00;2.00;;;;;;;;5085776;28;28400;-82
2023/12/26 06:29:51;;;;;;;;;5.00;2.00;;;;;;;;5105835;28;28318;-81
2023/12/26 06:32:16;;;;;;;;;3.33;3.00;;;;;;;;5103783;28;28626;-83
2023/12/26 06:34:41;;;;;;;;;2.00;2.00;;;;;;;;5106339;28;28098;-81
2023/12/26 06:37:06;;;;;;;;;1.00;1.00;;;;;;;;5103557;27;28069;-81
2023/12/26 06:39:32;;;;;;;;;3.00;2.33;;;;;;;;5103171;27;27918;-80
2023/12/26 06:41:57;;;;;;;;;2.67;2.00;;;;;;;;5085735;28;30033;-82
2023/12/26 06:44:22;;;;;;;;;1.67;1.67;;;;;;;;5103274;28;28414;-82
2023/12/26 06:46:48;;;;;;;;;5.33;1.00;;;;;;;;5100104;28;28305;-82
2023/12/26 06:49:16;;;;;;;;;1.00;1.00;;;;;;;;5103903;28;28525;-80
2023/12/26 06:51:41;;;;;;;;;2.67;1.00;;;;;;;;5082830;28;29350;-81
2023/12/26 06:54:07;;;;;;;;;5.00;3.00;;;;;;;;5101447;28;27885;-81
2023/12/26 06:56:32;;;;;;;;;3.67;2.00;;;;;;;;5109426;28;28037;-81
2023/12/26 06:58:58;;;;;;;;;4.00;2.33;;;;;;;;5080641;28;29128;-81
2023/12/26 07:01:23;;;;;;;;;3.00;2.00;;;;;;;;5080924;28;29927;-81
2023/12/26 07:03:49;;;;;;;;;2.00;2.00;;;;;;;;5081893;28;30294;-84
2023/12/26 07:06:14;;;;;;;;;6.33;1.00;;;;;;;;5098249;28;28833;-81
2023/12/26 07:08:42;;;;;;;;;2.33;2.00;;;;;;;;5080450;28;29279;-83
2023/12/26 07:11:07;;;;;;;;;1.67;1.67;;;;;;;;5060694;28;30054;-81
2023/12/26 07:13:33;;;;;;;;;1.00;1.00;;;;;;;;5091803;28;28572;-81
2023/12/26 07:15:58;;;;;;;;;1.67;1.00;;;;;;;;5084486;28;28933;-80
2023/12/26 07:18:24;;;;;;;;;4.00;2.00;;;;;;;;5094411;27;28747;-84
2023/12/26 07:20:49;;;;;;;;;1.33;1.00;;;;;;;;5088786;28;28661;-83
2023/12/26 07:23:14;;;;;;;;;3.67;2.67;;;;;;;;5089817;28;28584;-83
2023/12/26 07:25:41;;;;;;;;;2.33;2.33;;;;;;;;5065612;28;29792;-82
2023/12/26 07:28:14;;;;;;;;;5.00;2.00;;;;;;;;5086336;28;29276;-85
2023/12/26 07:30:40;;;;;;;;;11.33;4.00;;;;;;;;5096612;28;28720;-82
2023/12/26 07:33:05;;;;;;;;;3.00;2.00;;;;;;;;5087348;28;28874;-83
2023/12/26 07:35:31;;;;;;;;;5.33;2.00;;;;;;;;5086339;27;28683;-81
2023/12/26 07:37:57;;;;;;;;;1.33;1.33;;;;;;;;5086532;28;28440;-79
2023/12/26 07:40:22;;;;;;;;;4.00;3.00;;;;;;;;5081456;28;28623;-81
2023/12/26 07:42:47;;;;;;;;;1.33;1.33;;;;;;;;5085376;28;28813;-81
2023/12/26 07:45:12;;;;;;;;;2.00;2.00;;;;;;;;5068459;28;28576;-81
2023/12/26 07:47:38;;;;;;;;;1.00;1.00;;;;;;;;5088435;28;28527;-82
2023/12/26 07:50:03;;;;;;;;;2.67;2.00;;;;;;;;5092764;28;28042;-82
2023/12/26 07:52:28;;;;;;;;;2.67;1.00;;;;;;;;5077291;28;29044;-83
2023/12/26 07:54:54;;;;;;;;;3.67;2.00;;;;;;;;5098248;27;28397;-79
2023/12/26 07:57:19;;;;;;;;;4.00;2.00;;;;;;;;5092018;28;28466;-82
2023/12/26 07:59:44;;;;;;;;;3.00;2.67;;;;;;;;5078724;28;29330;-84
2023/12/26 08:02:09;;;;;;;;;2.33;1.33;;;;;;;;5068707;28;28966;-81
2023/12/26 08:04:34;;;;;;;;;4.00;3.00;;;;;;;;5089081;28;28965;-80
2023/12/26 08:06:59;;;;;;;;;4.67;1.00;;;;;;;;5088760;28;28464;-81
2023/12/26 08:09:25;;;;;;;;;3.33;2.00;;;;;;;;5087136;27;28499;-82
2023/12/26 08:11:50;;;;;;;;;3.00;1.67;;;;;;;;5085637;28;28640;-83
2023/12/26 08:14:17;;;;;;;;;1.00;1.00;;;;;;;;5089991;28;29074;-81
2023/12/26 08:16:43;;;;;;;;;2.33;2.33;;;;;;;;5081107;28;27919;-84
2023/12/26 08:19:08;;;;;;;;;5.33;2.67;;;;;;;;5089968;28;28506;-81
2023/12/26 08:21:33;;;;;;;;;1.00;1.00;;;;;;;;5089422;28;28678;-83
2023/12/26 08:24:04;;;;;;;;;4.00;2.33;;;;;;;;5092867;28;28315;-87
2023/12/26 08:26:31;;;;;;;;;4.00;3.33;;;;;;;;5095939;28;29583;-87
2023/12/26 08:28:56;;;;;;;;;3.67;2.00;;;;;;;;5095581;27;29294;-82
2023/12/26 08:31:24;;;;;;;;;3.00;2.33;;;;;;;;5089250;27;28559;-81
2023/12/26 08:33:50;;;;;;;;;6.00;3.33;;;;;;;;5069896;27;28396;-79
2023/12/26 08:36:15;;;;;;;;;6.67;6.67;;;;;;;;5072147;28;29468;-81
2023/12/26 08:38:41;;;;;;;;;6.00;4.00;;;;;;;;5064546;27;29039;-83
2023/12/26 08:41:06;;;;;;;;;1.00;1.00;;;;;;;;5083819;27;28983;-83
2023/12/26 08:43:32;;;;;;;;;3.33;2.67;;;;;;;;5071798;27;28975;-82
2023/12/26 08:45:57;;;;;;;;;5.00;2.00;;;;;;;;5084975;27;28654;-81
2023/12/26 08:48:22;;;;;;;;;8.33;7.67;;;;;;;;5085826;28;28466;-82
2023/12/26 08:50:48;;;;;;;;;7.67;5.67;;;;;;;;5085113;28;28881;-82
2023/12/26 08:53:13;;;;;;;;;3.00;3.00;;;;;;;;5080026;28;29032;-84
2023/12/26 08:55:38;;;;;;;;;15.33;14.00;;;;;;;;5085167;27;29580;-83
2023/12/26 08:58:03;;;;;;;;;8.67;7.67;;;;;;;;5093570;27;29905;-80
2023/12/26 09:00:29;;;;;;;;;4.67;2.67;;;;;;;;5083322;28;29017;-86
2023/12/26 09:02:54;;;;;;;;;6.33;5.00;;;;;;;;5083157;27;28827;-83
2023/12/26 09:05:20;;;;;;;;;7.00;3.00;;;;;;;;5087561;28;29138;-80
2023/12/26 09:07:45;;;;;;;;;10.00;8.33;;;;;;;;5087329;28;28508;-81
2023/12/26 09:10:10;;;;;;;;;3.67;2.00;;;;;;;;5087876;28;28500;-80
2023/12/26 09:12:38;;;;;;;;;3.67;3.67;;;;;;;;5090462;28;28527;-82
2023/12/26 09:15:03;;;;;;;;;1.00;1.00;;;;;;;;5085757;28;29014;-84
2023/12/26 09:17:31;;;;;;;;;2.00;2.00;;;;;;;;5069500;28;30437;-81
2023/12/26 09:19:56;;;;;;;;;1.25;1.25;;;;;;;;5090024;28;28782;-83
2023/12/26 09:22:21;;;;;;;;;3.67;2.00;;;;;;;;5088103;28;28503;-82
2023/12/26 09:24:47;;;;;;;;;8.67;4.33;;;;;;;;5088811;28;28536;-81
2023/12/26 09:27:12;;;;;;;;;16.33;15.33;;;;;;;;5070075;28;29822;-82
2023/12/26 09:29:37;;;;;;;;;4.33;4.00;;;;;;;;5088576;28;28546;-83
2023/12/26 09:32:02;;;;;;;;;1.00;1.00;;;;;;;;5082348;28;28566;-81
2023/12/26 09:34:28;;;;;;;;;2.67;2.00;;;;;;;;5086460;28;28606;-82
2023/12/26 09:36:53;;;;;;;;;2.67;2.33;;;;;;;;5087454;28;28451;-83
2023/12/26 09:39:19;;;;;;;;;2.00;1.33;;;;;;;;5087754;28;28563;-83
2023/12/26 09:41:45;;;;;;;;;2.33;1.33;;;;;;;;5089269;28;28906;-82
2023/12/26 09:44:11;;;;;;;;;1.00;1.00;;;;;;;;5082959;28;29453;-83
2023/12/26 09:46:37;;;;;;;;;1.33;1.00;;;;;;;;5084157;28;29384;-83
2023/12/26 09:49:03;;;;;;;;;4.67;4.67;;;;;;;;5087794;28;28599;-81
2023/12/26 09:51:28;;;;;;;;;4.00;2.00;;;;;;;;5085519;28;29027;-80
2023/12/26 09:53:57;;;;;;;;;5.33;5.33;;;;;;;;5088462;28;28563;-82
2023/12/26 09:56:24;;;;;;;;;5.33;4.33;;;;;;;;5085993;28;28575;-82
2023/12/26 09:58:49;;;;;;;;;4.25;4.00;;;;;;;;5070751;28;28612;-84
2023/12/26 10:01:15;;;;;;;;;5.33;3.67;;;;;;;;5064997;28;28583;-83
2023/12/26 10:03:41;;;;;;;;;3.00;1.67;;;;;;;;5089075;28;28512;-83
2023/12/26 10:06:08;;;;;;;;;4.00;3.00;;;;;;;;5084909;28;29731;-83
2023/12/26 10:08:33;;;;;;;;;5.50;2.00;;;;;;;;5084437;28;28578;-81
2023/12/26 10:10:58;;;;;;;;;3.67;2.00;;;;;;;;5085440;28;28631;-82
2023/12/26 10:13:23;;;;;;;;;3.33;2.33;;;;;;;;5083583;28;28871;-82
2023/12/26 10:15:49;;;;;;;;;5.67;3.00;;;;;;;;5086078;28;28639;-83
2023/12/26 10:18:15;;;;;;;;;2.33;2.00;;;;;;;;5065661;28;28622;-82
2023/12/26 10:20:41;;;;;;;;;1.00;1.00;;;;;;;;5088171;28;28843;-82
2023/12/26 10:23:06;;;;;;;;;3.00;2.33;;;;;;;;5083700;28;28521;-81
2023/12/26 10:25:31;;;;;;;;;4.00;3.00;;;;;;;;5089893;27;30417;-83
2023/12/26 10:27:58;;;;;;;;;1.33;1.33;;;;;;;;5088579;28;28866;-82
2023/12/26 10:30:26;;;;;;;;;3.00;2.00;;;;;;;;5075656;28;28770;-82
2023/12/26 10:33:02;;;;;;;;;2.33;1.00;;;;;;;;5087510;28;28932;-81
2023/12/26 10:35:27;;;;;;;;;1.00;1.00;;;;;;;;5102363;27;28554;-81
2023/12/26 10:37:55;;;;;;;;;2.33;1.00;;;;;;;;5067304;28;28774;-81
2023/12/26 10:40:21;;;;;;;;;4.00;1.67;;;;;;;;5087899;28;28576;-82
2023/12/26 10:42:48;;;;;;;;;1.00;1.00;;;;;;;;5068077;28;29435;-82
2023/12/26 10:45:14;;;;;;;;;4.33;1.00;;;;;;;;5086757;28;28941;-83
2023/12/26 10:47:42;;;;;;;;;3.00;2.00;;;;;;;;5089014;28;28495;-80
2023/12/26 10:50:08;;;;;;;;;2.67;1.00;;;;;;;;5089908;28;28887;-81
2023/12/26 10:52:36;;;;;;;;;2.67;1.00;;;;;;;;5091628;28;28853;-82
2023/12/26 10:55:02;;;;;;;;;3.00;1.67;;;;;;;;5088865;28;28425;-81
2023/12/26 10:57:29;;;;;;;;;2.00;2.00;;;;;;;;5099479;27;27890;-81
2023/12/26 13:53:43;;;;;;;;;11.00;7.33;;;;;;;;5065744;28;28559;-85
2023/12/26 13:56:08;;;;;;;;;14.00;13.00;;;;;;;;5055454;28;30393;-80
2023/12/26 13:58:33;;;;;;;;;11.00;7.33;;;;;;;;5062148;28;28763;-83
2023/12/26 14:01:00;;;;;;;;;25.67;19.67;;;;;;;;5063847;28;28715;-83
2023/12/26 14:03:28;;;;;;;;;17.00;15.00;;;;;;;;5066275;28;29898;-82
2023/12/26 14:05:53;;;;;;;;;9.00;8.33;;;;;;;;5068903;28;30908;-81
2023/12/26 14:08:19;;;;;;;;;15.00;14.33;;;;;;;;5070840;28;29310;-83
2023/12/26 14:10:45;;;;;;;;;6.00;6.00;;;;;;;;5088877;28;28705;-83
2023/12/26 14:13:10;;;;;;;;;3.33;3.33;;;;;;;;5066294;28;28659;-83
2023/12/26 14:15:35;;;;;;;;;6.00;4.67;;;;;;;;5085755;28;30475;-81
2023/12/26 14:18:02;;;;;;;;;6.33;6.33;;;;;;;;5088195;28;28473;-81
2023/12/26 14:20:27;;;;;;;;;18.67;17.67;;;;;;;;5079386;28;28532;-84
2023/12/26 14:23:02;;;;;;;;;9.67;9.67;;;;;;;;5072661;28;28761;-83
2023/12/26 14:25:28;;;;;;;;;12.00;7.67;;;;;;;;5068897;28;29842;-81
2023/12/26 14:27:59;;;;;;;;;10.00;8.67;;;;;;;;5090892;28;28013;-83
2023/12/26 14:30:24;;;;;;;;;10.33;9.33;;;;;;;;5070445;28;28383;-83
2023/12/26 14:32:50;;;;;;;;;3.67;3.67;;;;;;;;5089756;28;28203;-82
2023/12/26 14:35:16;;;;;;;;;5.33;3.33;;;;;;;;5096056;28;28702;-84
2023/12/26 14:37:42;;;;;;;;;2.25;2.25;;;;;;;;5098491;28;27950;-84
2023/12/26 14:40:08;;;;;;;;;4.67;3.67;;;;;;;;5075976;28;28622;-85
2023/12/26 14:42:33;;;;;;;;;16.67;13.67;;;;;;;;5097472;28;29356;-86
2023/12/26 14:44:58;;;;;;;;;15.33;15.33;;;;;;;;5084961;28;28832;-84
2023/12/26 14:47:24;;;;;;;;;10.00;10.00;;;;;;;;5088154;27;28568;-85
2023/12/26 14:49:49;;;;;;;;;5.00;4.67;;;;;;;;5070959;28;28521;-85
2023/12/26 14:52:14;;;;;;;;;6.33;4.00;;;;;;;;5086786;28;28735;-84
2023/12/26 14:54:39;;;;;;;;;3.00;2.00;;;;;;;;5081315;28;28657;-84
2023/12/26 14:57:06;;;;;;;;;3.00;3.00;;;;;;;;5086072;28;28560;-85
2023/12/26 14:59:32;;;;;;;;;5.00;3.33;;;;;;;;5063224;28;28690;-84
2023/12/26 15:01:58;;;;;;;;;6.33;6.33;;;;;;;;5087548;28;28615;-84
2023/12/26 15:04:24;;;;;;;;;9.00;8.33;;;;;;;;5079605;28;28630;-77
2023/12/26 15:06:50;;;;;;;;;2.00;2.00;;;;;;;;5079261;27;28868;-75
2023/12/26 15:09:15;;;;;;;;;5.00;4.67;;;;;;;;5072479;28;28548;-77
2023/12/26 15:11:40;;;;;;;;;4.67;2.00;;;;;;;;5080030;27;28734;-77
2023/12/26 15:14:05;;;;;;;;;4.33;2.67;;;;;;;;5064774;28;30570;-77
2023/12/26 15:16:31;;;;;;;;;2.00;2.00;;;;;;;;5075827;28;28666;-78
2023/12/26 15:18:56;;;;;;;;;7.00;5.00;;;;;;;;5085063;28;28489;-77
2023/12/26 15:21:21;;;;;;;;;2.00;1.00;;;;;;;;5077293;28;28547;-76
2023/12/26 15:23:49;;;;;;;;;19.67;14.67;;;;;;;;5080441;28;28813;-77
2023/12/26 15:26:15;;;;;;;;;11.67;9.67;;;;;;;;5080852;27;28649;-79
2023/12/26 15:28:44;;;;;;;;;3.00;3.00;;;;;;;;5079631;28;28993;-77
2023/12/26 15:31:14;;;;;;;;;4.33;3.00;;;;;;;;5083295;28;28627;-75
2023/12/26 15:33:42;;;;;;;;;9.00;8.33;;;;;;;;5082083;28;28639;-76
2023/12/26 15:36:07;;;;;;;;;6.75;4.00;;;;;;;;5061167;28;28764;-77
2023/12/26 15:38:33;;;;;;;;;6.00;4.00;;;;;;;;5084095;28;28906;-76
2023/12/26 15:40:58;;;;;;;;;5.33;4.00;;;;;;;;5083272;28;29042;-78
2023/12/26 15:43:23;;;;;;;;;24.67;23.33;;;;;;;;5080749;28;28679;-77
2023/12/26 15:45:49;;;;;;;;;9.00;9.00;;;;;;;;5087389;27;28773;-78
2023/12/26 15:48:14;;;;;;;;;5.00;3.67;;;;;;;;5084420;28;28485;-75
2023/12/26 15:50:39;;;;;;;;;6.00;5.00;;;;;;;;5064494;28;28661;-76
2023/12/26 15:53:04;;;;;;;;;11.67;9.33;;;;;;;;5087185;28;28860;-78
2023/12/26 15:55:30;;;;;;;;;19.33;14.33;;;;;;;;5085106;28;28823;-77
2023/12/26 15:57:55;;;;;;;;;10.33;10.00;;;;;;;;5067843;28;28503;-77
2023/12/26 16:00:20;;;;;;;;;10.67;9.67;;;;;;;;5085017;28;28882;-79
2023/12/26 16:02:46;;;;;;;;;15.67;11.67;;;;;;;;5078103;28;28608;-77
2023/12/26 16:05:11;;;;;;;;;16.00;10.33;;;;;;;;5073613;28;29015;-78
2023/12/26 16:07:36;;;;;;;;;14.33;13.00;;;;;;;;5072810;28;28934;-78
2023/12/26 16:10:02;;;;;;;;;13.00;13.00;;;;;;;;5060089;28;29459;-77
2023/12/26 16:12:27;;;;;;;;;56.67;45.67;;;;;;;;5071524;28;28558;-79
2023/12/26 16:14:52;;;;;;;;;21.33;15.33;;;;;;;;5072216;28;28618;-78
2023/12/26 16:17:17;;;;;;;;;18.00;18.00;;;;;;;;5065524;28;28863;-79
2023/12/26 16:19:43;;;;;;;;;18.67;17.00;;;;;;;;5077970;28;28594;-78
2023/12/26 16:22:08;;;;;;;;;14.67;14.33;;;;;;;;5066214;28;29450;-78
2023/12/26 16:24:36;;;;;;;;;22.67;19.00;;;;;;;;5079917;28;28592;-78
2023/12/26 16:27:01;;;;;;;;;31.00;27.33;;;;;;;;5070015;28;28722;-78
2023/12/26 16:29:47;;;;;;;;;9.33;7.33;;;;;;;;5071595;28;28653;-83
2023/12/26 16:32:15;;;;;;;;;9.67;9.00;;;;;;;;5045542;28;28584;-81
2023/12/26 16:34:41;;;;;;;;;17.00;15.67;;;;;;;;5064852;28;28739;-82
2023/12/26 16:37:06;;;;;;;;;12.00;10.67;;;;;;;;5070107;28;29058;-82
2023/12/26 16:39:32;;;;;;;;;20.00;17.33;;;;;;;;5063259;28;28733;-80
2023/12/26 16:42:10;;;;;;;;;24.00;20.00;;;;;;;;5047615;28;29611;-80
2023/12/26 16:44:43;;;;;;;;;25.67;22.67;;;;;;;;5065198;28;28604;-82
2023/12/26 16:47:09;;;;;;;;;22.67;20.00;;;;;;;;5047202;28;29008;-81
2023/12/26 16:49:34;;;;;;;;;17.67;15.00;;;;;;;;5057418;28;28623;-82
2023/12/26 16:52:00;;;;;;;;;20.00;20.00;;;;;;;;5054402;28;29003;-81
2023/12/26 16:54:26;;;;;;;;;11.67;10.67;;;;;;;;5036882;28;28866;-82
2023/12/26 16:56:52;;;;;;;;;10.00;8.33;;;;;;;;5056713;28;28537;-82
2023/12/26 16:59:17;;;;;;;;;23.33;18.00;;;;;;;;5033559;28;29194;-81
2023/12/26 17:05:26;;;;;;;;;11.33;8.67;;;;;;;;5082786;27;28647;-81
2023/12/26 17:08:03;;;;;;;;;14.00;12.00;;;;;;;;5080856;28;28514;-80
2023/12/26 17:10:29;;;;;;;;;20.00;18.33;;;;;;;;5063291;28;29094;-80
2023/12/26 17:12:57;;;;;;;;;10.67;10.33;;;;;;;;5060094;28;28985;-79
2023/12/26 17:15:23;;;;;;;;;6.00;6.00;;;;;;;;5059909;28;28965;-81
2023/12/26 17:17:51;;;;;;;;;15.00;11.00;;;;;;;;5054137;28;28652;-82
2023/12/26 17:20:16;;;;;;;;;17.33;15.00;;;;;;;;5040479;28;30033;-82
2023/12/26 17:22:44;;;;;;;;;32.67;26.67;;;;;;;;5061951;28;29202;-83
2023/12/26 17:25:10;;;;;;;;;27.33;24.67;;;;;;;;5061953;28;28808;-83
2023/12/26 17:27:38;;;;;;;;;47.33;39.33;;;;;;;;5059574;28;28984;-80
2023/12/26 17:30:07;;;;;;;;;17.67;17.67;;;;;;;;5064458;28;28765;-78